AET77UK WSSL-VTSG
Flight info
| Callsign | AET77UK |
|---|---|
| Flight time | N/A |
| Altitude | 22000 |
| Route | OMKOM DCT AROSO Y513 KALIL Y501 RINBA R325 VAS/N0279F330 A457 HTY W14 TRN W32 TUNRA TUNRA1E |
| Aircraft | BE20/M-SDFGRWY/LB1 |
Departure
| Time | 2026-04-19 09:34 |
|---|---|
| Airport | Seletar Airport (WSSL) |
Arrival
| Time | N/A |
|---|---|
| Airport | Krabi International Airport (VTSG) |
| Time | Latitude | Longitude | Altitude | Speed | Heading |
|---|---|---|---|---|---|
| 2026-04-19 09:14 | 1.41669 | 103.86986 | 50 ft | 0 kts | 303° |
| 2026-04-19 09:29 | 1.41671 | 103.86983 | 50 ft | 3 kts | 303° |
| 2026-04-19 09:30 | 1.41675 | 103.86943 | 50 ft | 11 kts | 215° |
| 2026-04-19 09:30 | 1.41596 | 103.86890 | 50 ft | 15 kts | 213° |
| 2026-04-19 09:30 | 1.41488 | 103.86819 | 50 ft | 23 kts | 214° |
| 2026-04-19 09:30 | 1.41334 | 103.86719 | 50 ft | 29 kts | 213° |
| 2026-04-19 09:31 | 1.41146 | 103.86596 | 50 ft | 35 kts | 213° |
| 2026-04-19 09:31 | 1.40928 | 103.86454 | 50 ft | 40 kts | 213° |
| 2026-04-19 09:31 | 1.40789 | 103.86361 | 50 ft | 12 kts | 233° |
| 2026-04-19 09:31 | 1.40814 | 103.86300 | 50 ft | 14 kts | 304° |
| 2026-04-19 09:32 | 1.40874 | 103.86231 | 48 ft | 8 kts | 8° |
| 2026-04-19 09:32 | 1.40891 | 103.86239 | 48 ft | 0 kts | 32° |
| 2026-04-19 09:33 | 1.40896 | 103.86243 | 48 ft | 11 kts | 32° |
| 2026-04-19 09:33 | 1.41151 | 103.86411 | 50 ft | 73 kts | 33° |
| 2026-04-19 09:33 | 1.41719 | 103.86779 | 101 ft | 115 kts | 33° |
| 2026-04-19 09:34 | 1.42436 | 103.87230 | 456 ft | 129 kts | 29° |
| 2026-04-19 09:34 | 1.43235 | 103.87665 | 1008 ft | 131 kts | 30° |
| 2026-04-19 09:34 | 1.44218 | 103.87887 | 1403 ft | 157 kts | 1° |
| 2026-04-19 09:34 | 1.45328 | 103.87900 | 2102 ft | 160 kts | 1° |
| 2026-04-19 09:35 | 1.46442 | 103.87910 | 2737 ft | 162 kts | 0° |
| 2026-04-19 09:35 | 1.46957 | 103.87914 | 3005 ft | 162 kts | 0° |
| 2026-04-19 09:35 | 1.48097 | 103.87921 | 3578 ft | 164 kts | 0° |
| 2026-04-19 09:35 | 1.49105 | 103.87894 | 4042 ft | 163 kts | 349° |
| 2026-04-19 09:36 | 1.49442 | 103.87788 | 4195 ft | 164 kts | 334° |
| 2026-04-19 09:36 | 1.50245 | 103.87246 | 4699 ft | 163 kts | 321° |
| 2026-04-19 09:36 | 1.50329 | 103.87182 | 4747 ft | 163 kts | 321° |
| 2026-04-19 09:36 | 1.51121 | 103.86561 | 5228 ft | 164 kts | 321° |
| 2026-04-19 09:37 | 1.51545 | 103.86232 | 5551 ft | 164 kts | 321° |
| 2026-04-19 09:37 | 1.52449 | 103.85542 | 6140 ft | 165 kts | 323° |
| 2026-04-19 09:37 | 1.53012 | 103.85117 | 6457 ft | 167 kts | 323° |
| 2026-04-19 09:37 | 1.53550 | 103.84721 | 6730 ft | 169 kts | 324° |
| 2026-04-19 09:38 | 1.54491 | 103.84035 | 7158 ft | 172 kts | 324° |
| 2026-04-19 09:38 | 1.55445 | 103.83343 | 7600 ft | 172 kts | 323° |
| 2026-04-19 09:38 | 1.56419 | 103.82637 | 8019 ft | 174 kts | 323° |
| 2026-04-19 09:38 | 1.57402 | 103.81926 | 8432 ft | 175 kts | 323° |
| 2026-04-19 09:39 | 1.58365 | 103.81230 | 8825 ft | 177 kts | 323° |
| 2026-04-19 09:39 | 1.58827 | 103.80896 | 9029 ft | 177 kts | 323° |
| 2026-04-19 09:39 | 1.59554 | 103.80371 | 9363 ft | 179 kts | 323° |
| 2026-04-19 09:39 | 1.59873 | 103.80141 | 9487 ft | 180 kts | 323° |
| 2026-04-19 09:40 | 1.59977 | 103.80065 | 9539 ft | 180 kts | 323° |
| 2026-04-19 09:40 | 1.60756 | 103.79502 | 9874 ft | 180 kts | 323° |
| 2026-04-19 09:40 | 1.61409 | 103.79029 | 10126 ft | 182 kts | 323° |
| 2026-04-19 09:40 | 1.62414 | 103.78298 | 10591 ft | 182 kts | 323° |
| 2026-04-19 09:41 | 1.63460 | 103.77541 | 11075 ft | 182 kts | 323° |
| 2026-04-19 09:41 | 1.64472 | 103.76808 | 11541 ft | 182 kts | 323° |
| 2026-04-19 09:41 | 1.65502 | 103.76063 | 12025 ft | 182 kts | 323° |
| 2026-04-19 09:41 | 1.66203 | 103.75556 | 12346 ft | 183 kts | 324° |
| 2026-04-19 09:42 | 1.67237 | 103.74808 | 12768 ft | 184 kts | 324° |
| 2026-04-19 09:42 | 1.68272 | 103.74061 | 13199 ft | 183 kts | 324° |
| 2026-04-19 09:42 | 1.69306 | 103.73313 | 13595 ft | 184 kts | 324° |
| 2026-04-19 09:42 | 1.70347 | 103.72561 | 13958 ft | 184 kts | 324° |
| 2026-04-19 09:43 | 1.71381 | 103.71814 | 14329 ft | 183 kts | 324° |
| 2026-04-19 09:43 | 1.72415 | 103.71066 | 14686 ft | 184 kts | 324° |